sensor_id;sensor_type;location;lat;lon;timestamp;P1;durP1;ratioP1;P2;durP2;ratioP2
48993;SDS011;34804;49.214;12.276;2023-07-29T00:02:17;5.72;;;2.80;;
48993;SDS011;34804;49.214;12.276;2023-07-29T00:04:44;5.43;;;2.78;;
48993;SDS011;34804;49.214;12.276;2023-07-29T00:07:11;5.82;;;3.00;;
48993;SDS011;34804;49.214;12.276;2023-07-29T00:09:38;6.45;;;2.80;;
48993;SDS011;34804;49.214;12.276;2023-07-29T00:12:04;5.63;;;2.63;;
48993;SDS011;34804;49.214;12.276;2023-07-29T00:14:31;4.82;;;2.55;;
48993;SDS011;34804;49.214;12.276;2023-07-29T00:16:58;5.28;;;2.75;;
48993;SDS011;34804;49.214;12.276;2023-07-29T00:19:25;6.10;;;2.78;;
48993;SDS011;34804;49.214;12.276;2023-07-29T00:21:52;4.15;;;2.60;;
48993;SDS011;34804;49.214;12.276;2023-07-29T00:24:18;5.72;;;2.42;;
48993;SDS011;34804;49.214;12.276;2023-07-29T00:26:45;4.22;;;2.58;;
48993;SDS011;34804;49.214;12.276;2023-07-29T00:29:12;4.78;;;2.70;;
48993;SDS011;34804;49.214;12.276;2023-07-29T00:31:39;7.90;;;3.20;;
48993;SDS011;34804;49.214;12.276;2023-07-29T00:34:06;7.80;;;2.88;;
48993;SDS011;34804;49.214;12.276;2023-07-29T00:36:32;4.97;;;2.72;;
48993;SDS011;34804;49.214;12.276;2023-07-29T00:39:00;5.93;;;3.05;;
48993;SDS011;34804;49.214;12.276;2023-07-29T00:41:27;18.08;;;3.45;;
48993;SDS011;34804;49.214;12.276;2023-07-29T00:43:53;5.05;;;2.90;;
48993;SDS011;34804;49.214;12.276;2023-07-29T00:46:20;6.75;;;3.10;;
48993;SDS011;34804;49.214;12.276;2023-07-29T00:48:49;5.90;;;3.38;;
48993;SDS011;34804;49.214;12.276;2023-07-29T00:51:16;6.90;;;2.95;;
48993;SDS011;34804;49.214;12.276;2023-07-29T00:53:42;6.18;;;3.15;;
48993;SDS011;34804;49.214;12.276;2023-07-29T00:56:10;7.00;;;3.13;;
48993;SDS011;34804;49.214;12.276;2023-07-29T00:58:37;6.22;;;3.22;;
48993;SDS011;34804;49.214;12.276;2023-07-29T01:01:04;7.97;;;3.45;;
48993;SDS011;34804;49.214;12.276;2023-07-29T01:03:31;6.07;;;2.75;;
48993;SDS011;34804;49.214;12.276;2023-07-29T01:08:28;6.03;;;2.85;;
48993;SDS011;34804;49.214;12.276;2023-07-29T01:11:11;6.70;;;3.15;;
48993;SDS011;34804;49.214;12.276;2023-07-29T01:13:57;5.15;;;3.35;;
48993;SDS011;34804;49.214;12.276;2023-07-29T01:16:39;6.78;;;3.25;;
48993;SDS011;34804;49.214;12.276;2023-07-29T01:19:11;8.85;;;3.10;;
48993;SDS011;34804;49.214;12.276;2023-07-29T01:21:55;7.68;;;2.97;;
48993;SDS011;34804;49.214;12.276;2023-07-29T01:24:23;7.35;;;3.20;;
48993;SDS011;34804;49.214;12.276;2023-07-29T01:26:50;6.15;;;3.30;;
48993;SDS011;34804;49.214;12.276;2023-07-29T01:29:17;6.38;;;3.10;;
48993;SDS011;34804;49.214;12.276;2023-07-29T01:31:44;8.27;;;2.67;;
48993;SDS011;34804;49.214;12.276;2023-07-29T01:34:16;7.65;;;2.70;;
48993;SDS011;34804;49.214;12.276;2023-07-29T01:36:49;11.65;;;3.20;;
48993;SDS011;34804;49.214;12.276;2023-07-29T01:39:18;7.03;;;2.50;;
48993;SDS011;34804;49.214;12.276;2023-07-29T01:41:48;6.78;;;2.58;;
48993;SDS011;34804;49.214;12.276;2023-07-29T01:44:17;8.43;;;2.70;;
48993;SDS011;34804;49.214;12.276;2023-07-29T01:46:45;7.88;;;2.60;;
48993;SDS011;34804;49.214;12.276;2023-07-29T01:49:12;5.18;;;2.55;;
48993;SDS011;34804;49.214;12.276;2023-07-29T01:51:38;7.00;;;2.60;;
48993;SDS011;34804;49.214;12.276;2023-07-29T01:54:05;6.07;;;2.70;;
48993;SDS011;34804;49.214;12.276;2023-07-29T01:56:33;7.68;;;2.42;;
48993;SDS011;34804;49.214;12.276;2023-07-29T01:59:00;7.50;;;2.58;;
48993;SDS011;34804;49.214;12.276;2023-07-29T02:01:27;8.18;;;2.58;;
48993;SDS011;34804;49.214;12.276;2023-07-29T02:03:56;7.00;;;2.58;;
48993;SDS011;34804;49.214;12.276;2023-07-29T02:06:22;4.65;;;2.42;;
48993;SDS011;34804;49.214;12.276;2023-07-29T02:08:49;7.57;;;2.58;;
48993;SDS011;34804;49.214;12.276;2023-07-29T02:11:17;5.95;;;2.10;;
48993;SDS011;34804;49.214;12.276;2023-07-29T02:13:46;8.52;;;2.85;;
48993;SDS011;34804;49.214;12.276;2023-07-29T02:16:13;7.03;;;2.97;;
48993;SDS011;34804;49.214;12.276;2023-07-29T02:18:40;5.68;;;2.70;;
48993;SDS011;34804;49.214;12.276;2023-07-29T02:21:07;8.52;;;2.78;;
48993;SDS011;34804;49.214;12.276;2023-07-29T02:23:34;11.10;;;3.15;;
48993;SDS011;34804;49.214;12.276;2023-07-29T02:26:02;6.47;;;2.58;;
48993;SDS011;34804;49.214;12.276;2023-07-29T02:28:30;7.70;;;2.65;;
48993;SDS011;34804;49.214;12.276;2023-07-29T02:31:11;8.75;;;2.90;;
48993;SDS011;34804;49.214;12.276;2023-07-29T02:33:47;6.00;;;2.65;;
48993;SDS011;34804;49.214;12.276;2023-07-29T02:36:15;5.38;;;2.70;;
48993;SDS011;34804;49.214;12.276;2023-07-29T02:38:43;10.38;;;3.35;;
48993;SDS011;34804;49.214;12.276;2023-07-29T02:41:10;10.07;;;3.08;;
48993;SDS011;34804;49.214;12.276;2023-07-29T02:43:39;9.25;;;2.60;;
48993;SDS011;34804;49.214;12.276;2023-07-29T02:46:07;6.72;;;2.92;;
48993;SDS011;34804;49.214;12.276;2023-07-29T02:48:34;8.88;;;3.10;;
48993;SDS011;34804;49.214;12.276;2023-07-29T02:51:01;7.78;;;3.40;;
48993;SDS011;34804;49.214;12.276;2023-07-29T02:53:28;8.63;;;3.50;;
48993;SDS011;34804;49.214;12.276;2023-07-29T02:55:55;10.00;;;3.58;;
48993;SDS011;34804;49.214;12.276;2023-07-29T02:58:21;13.35;;;3.30;;
48993;SDS011;34804;49.214;12.276;2023-07-29T03:00:48;11.25;;;4.00;;
48993;SDS011;34804;49.214;12.276;2023-07-29T03:03:16;5.85;;;3.33;;
48993;SDS011;34804;49.214;12.276;2023-07-29T03:05:43;10.45;;;3.85;;
48993;SDS011;34804;49.214;12.276;2023-07-29T03:08:10;10.02;;;4.10;;
48993;SDS011;34804;49.214;12.276;2023-07-29T03:10:37;9.38;;;4.07;;
48993;SDS011;34804;49.214;12.276;2023-07-29T03:13:04;10.35;;;4.15;;
48993;SDS011;34804;49.214;12.276;2023-07-29T03:15:31;8.88;;;4.55;;
48993;SDS011;34804;49.214;12.276;2023-07-29T03:18:00;11.27;;;4.57;;
48993;SDS011;34804;49.214;12.276;2023-07-29T03:20:27;10.07;;;4.38;;
48993;SDS011;34804;49.214;12.276;2023-07-29T03:22:53;8.02;;;4.55;;
48993;SDS011;34804;49.214;12.276;2023-07-29T03:25:21;9.02;;;4.47;;
48993;SDS011;34804;49.214;12.276;2023-07-29T03:27:47;9.25;;;5.18;;
48993;SDS011;34804;49.214;12.276;2023-07-29T03:30:18;10.55;;;5.13;;
48993;SDS011;34804;49.214;12.276;2023-07-29T03:32:47;8.35;;;4.65;;
48993;SDS011;34804;49.214;12.276;2023-07-29T03:35:14;10.27;;;4.78;;
48993;SDS011;34804;49.214;12.276;2023-07-29T03:37:41;7.18;;;4.70;;
48993;SDS011;34804;49.214;12.276;2023-07-29T03:40:08;9.77;;;4.50;;
48993;SDS011;34804;49.214;12.276;2023-07-29T03:42:35;8.95;;;4.60;;
48993;SDS011;34804;49.214;12.276;2023-07-29T03:45:02;10.52;;;4.43;;
48993;SDS011;34804;49.214;12.276;2023-07-29T03:47:30;9.85;;;4.82;;
48993;SDS011;34804;49.214;12.276;2023-07-29T03:49:57;13.13;;;4.95;;
48993;SDS011;34804;49.214;12.276;2023-07-29T03:52:23;9.18;;;4.95;;
48993;SDS011;34804;49.214;12.276;2023-07-29T03:54:50;8.00;;;4.40;;
48993;SDS011;34804;49.214;12.276;2023-07-29T03:57:17;10.30;;;4.15;;
48993;SDS011;34804;49.214;12.276;2023-07-29T03:59:44;14.35;;;4.90;;
48993;SDS011;34804;49.214;12.276;2023-07-29T04:02:11;8.88;;;4.53;;
48993;SDS011;34804;49.214;12.276;2023-07-29T04:04:38;9.27;;;4.90;;
48993;SDS011;34804;49.214;12.276;2023-07-29T04:07:05;10.13;;;5.13;;
48993;SDS011;34804;49.214;12.276;2023-07-29T04:09:32;11.05;;;5.22;;
48993;SDS011;34804;49.214;12.276;2023-07-29T04:11:59;7.47;;;5.00;;
48993;SDS011;34804;49.214;12.276;2023-07-29T04:14:26;12.30;;;5.50;;
48993;SDS011;34804;49.214;12.276;2023-07-29T04:16:52;13.35;;;5.75;;
48993;SDS011;34804;49.214;12.276;2023-07-29T04:19:19;10.85;;;5.40;;
48993;SDS011;34804;49.214;12.276;2023-07-29T04:21:47;10.20;;;5.80;;
48993;SDS011;34804;49.214;12.276;2023-07-29T04:24:14;10.55;;;5.53;;
48993;SDS011;34804;49.214;12.276;2023-07-29T04:26:40;9.63;;;5.60;;
48993;SDS011;34804;49.214;12.276;2023-07-29T04:29:07;9.48;;;5.32;;
48993;SDS011;34804;49.214;12.276;2023-07-29T04:31:34;8.60;;;5.03;;
48993;SDS011;34804;49.214;12.276;2023-07-29T04:34:01;9.35;;;5.28;;
48993;SDS011;34804;49.214;12.276;2023-07-29T04:36:28;7.97;;;5.93;;
48993;SDS011;34804;49.214;12.276;2023-07-29T04:38:55;12.27;;;5.35;;
48993;SDS011;34804;49.214;12.276;2023-07-29T04:41:22;9.00;;;6.03;;
48993;SDS011;34804;49.214;12.276;2023-07-29T04:43:49;10.98;;;5.80;;
48993;SDS011;34804;49.214;12.276;2023-07-29T04:46:16;13.57;;;6.82;;
48993;SDS011;34804;49.214;12.276;2023-07-29T04:48:43;9.07;;;6.00;;
48993;SDS011;34804;49.214;12.276;2023-07-29T04:51:09;9.38;;;6.35;;
48993;SDS011;34804;49.214;12.276;2023-07-29T04:53:36;11.10;;;5.95;;
48993;SDS011;34804;49.214;12.276;2023-07-29T04:56:04;8.32;;;5.65;;
48993;SDS011;34804;49.214;12.276;2023-07-29T04:58:31;8.75;;;6.18;;
48993;SDS011;34804;49.214;12.276;2023-07-29T05:01:01;11.57;;;5.80;;
48993;SDS011;34804;49.214;12.276;2023-07-29T05:03:29;9.20;;;6.00;;
48993;SDS011;34804;49.214;12.276;2023-07-29T05:05:57;9.73;;;6.05;;
48993;SDS011;34804;49.214;12.276;2023-07-29T05:08:28;9.27;;;6.55;;
48993;SDS011;34804;49.214;12.276;2023-07-29T05:10:55;10.27;;;6.10;;
48993;SDS011;34804;49.214;12.276;2023-07-29T05:13:22;8.40;;;5.53;;
48993;SDS011;34804;49.214;12.276;2023-07-29T05:15:49;9.20;;;6.70;;
48993;SDS011;34804;49.214;12.276;2023-07-29T05:18:17;11.43;;;7.00;;
48993;SDS011;34804;49.214;12.276;2023-07-29T05:20:44;11.63;;;8.93;;
48993;SDS011;34804;49.214;12.276;2023-07-29T05:23:10;10.63;;;8.95;;
48993;SDS011;34804;49.214;12.276;2023-07-29T05:25:37;12.88;;;9.70;;
48993;SDS011;34804;49.214;12.276;2023-07-29T05:28:04;13.90;;;10.68;;
48993;SDS011;34804;49.214;12.276;2023-07-29T05:30:31;17.70;;;10.65;;
48993;SDS011;34804;49.214;12.276;2023-07-29T05:33:00;14.82;;;11.73;;
48993;SDS011;34804;49.214;12.276;2023-07-29T05:35:27;14.60;;;11.85;;
48993;SDS011;34804;49.214;12.276;2023-07-29T05:37:54;14.20;;;11.25;;
48993;SDS011;34804;49.214;12.276;2023-07-29T05:40:21;12.02;;;10.55;;
48993;SDS011;34804;49.214;12.276;2023-07-29T05:42:47;14.20;;;10.93;;
48993;SDS011;34804;49.214;12.276;2023-07-29T05:45:14;15.07;;;10.73;;
48993;SDS011;34804;49.214;12.276;2023-07-29T05:47:41;13.90;;;10.60;;
48993;SDS011;34804;49.214;12.276;2023-07-29T05:50:08;11.02;;;9.88;;
48993;SDS011;34804;49.214;12.276;2023-07-29T05:52:36;13.05;;;10.85;;
48993;SDS011;34804;49.214;12.276;2023-07-29T05:55:03;12.50;;;9.00;;
48993;SDS011;34804;49.214;12.276;2023-07-29T05:57:30;13.95;;;9.43;;
48993;SDS011;34804;49.214;12.276;2023-07-29T05:59:57;10.60;;;9.25;;
48993;SDS011;34804;49.214;12.276;2023-07-29T06:02:24;14.13;;;9.25;;
48993;SDS011;34804;49.214;12.276;2023-07-29T06:04:51;12.93;;;9.82;;
48993;SDS011;34804;49.214;12.276;2023-07-29T06:07:18;10.68;;;8.90;;
48993;SDS011;34804;49.214;12.276;2023-07-29T06:09:45;9.85;;;8.63;;
48993;SDS011;34804;49.214;12.276;2023-07-29T06:12:12;12.02;;;8.20;;
48993;SDS011;34804;49.214;12.276;2023-07-29T06:14:39;13.15;;;7.95;;
48993;SDS011;34804;49.214;12.276;2023-07-29T06:17:06;8.52;;;7.35;;
48993;SDS011;34804;49.214;12.276;2023-07-29T06:19:33;9.30;;;7.85;;
48993;SDS011;34804;49.214;12.276;2023-07-29T06:22:00;8.93;;;7.35;;
48993;SDS011;34804;49.214;12.276;2023-07-29T06:24:28;8.90;;;7.60;;
48993;SDS011;34804;49.214;12.276;2023-07-29T06:26:54;10.68;;;8.05;;
48993;SDS011;34804;49.214;12.276;2023-07-29T06:29:21;11.82;;;8.20;;
48993;SDS011;34804;49.214;12.276;2023-07-29T06:31:48;10.27;;;8.45;;
48993;SDS011;34804;49.214;12.276;2023-07-29T06:34:17;16.73;;;8.30;;
48993;SDS011;34804;49.214;12.276;2023-07-29T06:36:45;10.80;;;8.90;;
48993;SDS011;34804;49.214;12.276;2023-07-29T06:39:11;12.30;;;8.85;;
48993;SDS011;34804;49.214;12.276;2023-07-29T06:41:38;9.80;;;8.15;;
48993;SDS011;34804;49.214;12.276;2023-07-29T06:44:05;9.98;;;8.57;;
48993;SDS011;34804;49.214;12.276;2023-07-29T06:46:32;9.70;;;8.20;;
48993;SDS011;34804;49.214;12.276;2023-07-29T06:48:59;10.73;;;8.30;;
48993;SDS011;34804;49.214;12.276;2023-07-29T06:51:25;9.32;;;8.30;;
48993;SDS011;34804;49.214;12.276;2023-07-29T06:53:52;13.57;;;8.48;;
48993;SDS011;34804;49.214;12.276;2023-07-29T06:56:19;10.20;;;8.10;;
48993;SDS011;34804;49.214;12.276;2023-07-29T06:58:46;12.05;;;8.13;;
48993;SDS011;34804;49.214;12.276;2023-07-29T07:01:13;12.27;;;7.63;;
48993;SDS011;34804;49.214;12.276;2023-07-29T07:03:40;11.35;;;8.48;;
48993;SDS011;34804;49.214;12.276;2023-07-29T07:06:07;10.10;;;8.52;;
48993;SDS011;34804;49.214;12.276;2023-07-29T07:08:34;10.35;;;7.53;;
48993;SDS011;34804;49.214;12.276;2023-07-29T07:11:01;8.77;;;7.88;;
48993;SDS011;34804;49.214;12.276;2023-07-29T07:13:27;9.48;;;7.60;;
48993;SDS011;34804;49.214;12.276;2023-07-29T07:15:55;10.20;;;7.35;;
48993;SDS011;34804;49.214;12.276;2023-07-29T07:18:22;11.45;;;8.48;;
48993;SDS011;34804;49.214;12.276;2023-07-29T07:20:50;10.52;;;6.85;;
48993;SDS011;34804;49.214;12.276;2023-07-29T07:23:17;9.82;;;7.00;;
48993;SDS011;34804;49.214;12.276;2023-07-29T07:25:44;9.32;;;6.18;;
48993;SDS011;34804;49.214;12.276;2023-07-29T07:28:11;7.30;;;5.57;;
48993;SDS011;34804;49.214;12.276;2023-07-29T07:30:41;10.77;;;6.22;;
48993;SDS011;34804;49.214;12.276;2023-07-29T07:33:08;7.50;;;5.97;;
48993;SDS011;34804;49.214;12.276;2023-07-29T07:35:35;7.97;;;5.00;;
48993;SDS011;34804;49.214;12.276;2023-07-29T07:38:02;10.75;;;5.15;;
48993;SDS011;34804;49.214;12.276;2023-07-29T07:40:30;7.75;;;4.40;;
48993;SDS011;34804;49.214;12.276;2023-07-29T07:42:57;6.43;;;4.18;;
48993;SDS011;34804;49.214;12.276;2023-07-29T07:45:24;18.95;;;4.50;;
48993;SDS011;34804;49.214;12.276;2023-07-29T07:47:51;6.13;;;3.78;;
48993;SDS011;34804;49.214;12.276;2023-07-29T07:50:19;5.07;;;3.20;;
48993;SDS011;34804;49.214;12.276;2023-07-29T07:52:46;20.70;;;3.17;;
48993;SDS011;34804;49.214;12.276;2023-07-29T07:55:13;6.68;;;3.35;;
48993;SDS011;34804;49.214;12.276;2023-07-29T07:57:40;5.18;;;3.38;;
48993;SDS011;34804;49.214;12.276;2023-07-29T08:00:07;7.00;;;3.53;;
48993;SDS011;34804;49.214;12.276;2023-07-29T08:02:35;8.70;;;3.75;;
48993;SDS011;34804;49.214;12.276;2023-07-29T08:05:03;8.68;;;4.40;;
48993;SDS011;34804;49.214;12.276;2023-07-29T08:07:30;6.45;;;3.70;;
48993;SDS011;34804;49.214;12.276;2023-07-29T08:09:56;6.85;;;3.55;;
48993;SDS011;34804;49.214;12.276;2023-07-29T08:12:23;5.82;;;3.65;;
48993;SDS011;34804;49.214;12.276;2023-07-29T08:14:50;6.13;;;3.30;;
48993;SDS011;34804;49.214;12.276;2023-07-29T08:17:17;6.07;;;3.10;;
48993;SDS011;34804;49.214;12.276;2023-07-29T08:19:44;6.40;;;3.15;;
48993;SDS011;34804;49.214;12.276;2023-07-29T08:22:10;10.73;;;3.50;;
48993;SDS011;34804;49.214;12.276;2023-07-29T08:24:37;8.57;;;3.33;;
48993;SDS011;34804;49.214;12.276;2023-07-29T08:27:04;14.00;;;3.92;;
48993;SDS011;34804;49.214;12.276;2023-07-29T08:29:31;6.57;;;3.53;;
48993;SDS011;34804;49.214;12.276;2023-07-29T08:31:58;7.57;;;3.50;;
48993;SDS011;34804;49.214;12.276;2023-07-29T08:34:25;8.10;;;4.00;;
48993;SDS011;34804;49.214;12.276;2023-07-29T08:36:52;22.60;;;4.68;;
48993;SDS011;34804;49.214;12.276;2023-07-29T08:39:19;9.93;;;4.47;;
48993;SDS011;34804;49.214;12.276;2023-07-29T08:42:02;12.85;;;3.65;;
48993;SDS011;34804;49.214;12.276;2023-07-29T08:44:35;17.38;;;3.60;;
48993;SDS011;34804;49.214;12.276;2023-07-29T08:47:06;18.70;;;2.70;;
48993;SDS011;34804;49.214;12.276;2023-07-29T08:49:33;12.70;;;2.20;;
48993;SDS011;34804;49.214;12.276;2023-07-29T08:52:01;8.45;;;2.17;;
48993;SDS011;34804;49.214;12.276;2023-07-29T08:54:30;8.95;;;2.40;;
48993;SDS011;34804;49.214;12.276;2023-07-29T08:56:57;7.05;;;2.80;;
48993;SDS011;34804;49.214;12.276;2023-07-29T08:59:25;7.88;;;2.72;;
48993;SDS011;34804;49.214;12.276;2023-07-29T09:01:54;6.57;;;3.00;;
48993;SDS011;34804;49.214;12.276;2023-07-29T09:04:23;5.70;;;2.90;;
48993;SDS011;34804;49.214;12.276;2023-07-29T09:06:51;12.20;;;3.58;;
48993;SDS011;34804;49.214;12.276;2023-07-29T09:09:20;10.43;;;2.80;;
48993;SDS011;34804;49.214;12.276;2023-07-29T09:11:48;5.57;;;2.85;;
48993;SDS011;34804;49.214;12.276;2023-07-29T09:14:15;6.45;;;2.80;;
48993;SDS011;34804;49.214;12.276;2023-07-29T09:16:42;5.60;;;2.90;;
48993;SDS011;34804;49.214;12.276;2023-07-29T09:19:09;7.05;;;2.65;;
48993;SDS011;34804;49.214;12.276;2023-07-29T09:21:38;4.57;;;2.83;;
48993;SDS011;34804;49.214;12.276;2023-07-29T09:24:06;4.43;;;2.45;;
48993;SDS011;34804;49.214;12.276;2023-07-29T09:26:34;5.80;;;3.10;;
48993;SDS011;34804;49.214;12.276;2023-07-29T09:29:02;5.03;;;2.50;;
48993;SDS011;34804;49.214;12.276;2023-07-29T09:31:29;5.65;;;3.08;;
48993;SDS011;34804;49.214;12.276;2023-07-29T09:34:01;4.53;;;2.30;;
48993;SDS011;34804;49.214;12.276;2023-07-29T09:36:32;5.05;;;1.90;;
48993;SDS011;34804;49.214;12.276;2023-07-29T09:39:01;3.80;;;1.95;;
48993;SDS011;34804;49.214;12.276;2023-07-29T09:41:28;4.70;;;1.92;;
48993;SDS011;34804;49.214;12.276;2023-07-29T09:43:59;5.13;;;1.88;;
48993;SDS011;34804;49.214;12.276;2023-07-29T09:46:37;4.30;;;1.73;;
48993;SDS011;34804;49.214;12.276;2023-07-29T09:49:05;5.53;;;2.13;;
48993;SDS011;34804;49.214;12.276;2023-07-29T09:51:37;5.93;;;1.70;;
48993;SDS011;34804;49.214;12.276;2023-07-29T09:54:07;5.03;;;1.88;;
48993;SDS011;34804;49.214;12.276;2023-07-29T09:56:39;3.17;;;1.55;;
48993;SDS011;34804;49.214;12.276;2023-07-29T09:59:09;5.05;;;1.65;;
48993;SDS011;34804;49.214;12.276;2023-07-29T10:01:37;3.85;;;1.60;;
48993;SDS011;34804;49.214;12.276;2023-07-29T10:04:05;4.55;;;2.00;;
48993;SDS011;34804;49.214;12.276;2023-07-29T10:06:34;5.95;;;1.60;;
48993;SDS011;34804;49.214;12.276;2023-07-29T10:09:03;4.07;;;1.70;;
48993;SDS011;34804;49.214;12.276;2023-07-29T10:11:31;4.07;;;1.90;;
48993;SDS011;34804;49.214;12.276;2023-07-29T10:14:00;3.75;;;1.80;;
48993;SDS011;34804;49.214;12.276;2023-07-29T10:16:38;5.30;;;2.00;;
48993;SDS011;34804;49.214;12.276;2023-07-29T10:19:07;6.53;;;2.10;;
48993;SDS011;34804;49.214;12.276;2023-07-29T10:21:36;4.00;;;1.80;;
48993;SDS011;34804;49.214;12.276;2023-07-29T10:24:06;4.47;;;2.15;;
48993;SDS011;34804;49.214;12.276;2023-07-29T10:26:37;4.13;;;1.70;;
48993;SDS011;34804;49.214;12.276;2023-07-29T10:29:10;3.92;;;1.80;;
48993;SDS011;34804;49.214;12.276;2023-07-29T10:31:40;3.78;;;1.80;;
48993;SDS011;34804;49.214;12.276;2023-07-29T10:34:10;5.15;;;2.13;;
48993;SDS011;34804;49.214;12.276;2023-07-29T10:36:37;6.70;;;1.95;;
48993;SDS011;34804;49.214;12.276;2023-07-29T10:39:06;5.03;;;2.30;;
48993;SDS011;34804;49.214;12.276;2023-07-29T10:47:13;7.85;;;4.50;;
48993;SDS011;34804;49.214;12.276;2023-07-29T10:49:46;5.13;;;2.97;;
48993;SDS011;34804;49.214;12.276;2023-07-29T10:52:14;5.75;;;2.80;;
48993;SDS011;34804;49.214;12.276;2023-07-29T10:57:14;6.13;;;2.80;;
48993;SDS011;34804;49.214;12.276;2023-07-29T10:59:52;5.53;;;2.97;;
48993;SDS011;34804;49.214;12.276;2023-07-29T11:02:32;5.97;;;2.78;;
48993;SDS011;34804;49.214;12.276;2023-07-29T11:05:16;8.90;;;3.10;;
48993;SDS011;34804;49.214;12.276;2023-07-29T11:07:45;5.18;;;2.72;;
48993;SDS011;34804;49.214;12.276;2023-07-29T11:10:13;6.28;;;2.60;;
48993;SDS011;34804;49.214;12.276;2023-07-29T11:12:47;6.97;;;3.15;;
48993;SDS011;34804;49.214;12.276;2023-07-29T11:15:24;5.03;;;2.50;;
48993;SDS011;34804;49.214;12.276;2023-07-29T11:20:21;5.43;;;2.72;;
48993;SDS011;34804;49.214;12.276;2023-07-29T11:22:59;4.50;;;2.50;;
48993;SDS011;34804;49.214;12.276;2023-07-29T11:25:27;5.15;;;2.40;;
48993;SDS011;34804;49.214;12.276;2023-07-29T11:27:56;6.10;;;2.47;;
48993;SDS011;34804;49.214;12.276;2023-07-29T11:30:25;4.97;;;2.45;;
48993;SDS011;34804;49.214;12.276;2023-07-29T11:33:00;7.05;;;2.70;;
48993;SDS011;34804;49.214;12.276;2023-07-29T11:35:27;4.47;;;2.00;;
48993;SDS011;34804;49.214;12.276;2023-07-29T11:37:54;5.47;;;2.65;;
48993;SDS011;34804;49.214;12.276;2023-07-29T11:40:23;4.45;;;2.00;;
48993;SDS011;34804;49.214;12.276;2023-07-29T11:42:51;4.55;;;2.10;;
48993;SDS011;34804;49.214;12.276;2023-07-29T11:45:19;3.92;;;1.95;;
48993;SDS011;34804;49.214;12.276;2023-07-29T11:47:49;4.25;;;1.63;;
48993;SDS011;34804;49.214;12.276;2023-07-29T11:50:16;3.63;;;1.65;;
48993;SDS011;34804;49.214;12.276;2023-07-29T11:52:44;4.78;;;1.65;;
48993;SDS011;34804;49.214;12.276;2023-07-29T11:55:13;3.10;;;1.52;;
48993;SDS011;34804;49.214;12.276;2023-07-29T11:57:41;3.85;;;1.50;;
48993;SDS011;34804;49.214;12.276;2023-07-29T12:00:10;2.95;;;1.55;;
48993;SDS011;34804;49.214;12.276;2023-07-29T12:02:39;5.47;;;1.67;;
48993;SDS011;34804;49.214;12.276;2023-07-29T12:05:08;3.72;;;1.75;;
48993;SDS011;34804;49.214;12.276;2023-07-29T12:07:38;3.75;;;1.63;;
48993;SDS011;34804;49.214;12.276;2023-07-29T12:10:06;3.30;;;1.55;;
48993;SDS011;34804;49.214;12.276;2023-07-29T12:12:33;4.00;;;1.55;;
48993;SDS011;34804;49.214;12.276;2023-07-29T12:15:09;3.85;;;1.58;;
48993;SDS011;34804;49.214;12.276;2023-07-29T12:17:40;4.55;;;1.70;;
48993;SDS011;34804;49.214;12.276;2023-07-29T12:20:08;4.05;;;1.73;;
48993;SDS011;34804;49.214;12.276;2023-07-29T12:22:36;3.90;;;1.67;;
48993;SDS011;34804;49.214;12.276;2023-07-29T12:25:04;5.28;;;1.60;;
48993;SDS011;34804;49.214;12.276;2023-07-29T12:27:31;3.95;;;1.65;;
48993;SDS011;34804;49.214;12.276;2023-07-29T12:29:58;4.28;;;1.80;;
48993;SDS011;34804;49.214;12.276;2023-07-29T12:32:30;3.30;;;1.63;;
48993;SDS011;34804;49.214;12.276;2023-07-29T12:34:57;3.30;;;1.50;;
48993;SDS011;34804;49.214;12.276;2023-07-29T12:37:31;3.67;;;1.63;;
48993;SDS011;34804;49.214;12.276;2023-07-29T12:39:59;3.90;;;1.58;;
48993;SDS011;34804;49.214;12.276;2023-07-29T12:42:26;3.63;;;1.50;;
48993;SDS011;34804;49.214;12.276;2023-07-29T12:44:53;3.42;;;1.60;;
48993;SDS011;34804;49.214;12.276;2023-07-29T12:47:20;4.30;;;1.50;;
48993;SDS011;34804;49.214;12.276;2023-07-29T12:49:47;3.80;;;1.70;;
48993;SDS011;34804;49.214;12.276;2023-07-29T12:52:14;4.55;;;1.67;;
48993;SDS011;34804;49.214;12.276;2023-07-29T12:54:40;2.78;;;1.40;;
48993;SDS011;34804;49.214;12.276;2023-07-29T12:57:10;3.22;;;1.55;;
48993;SDS011;34804;49.214;12.276;2023-07-29T12:59:37;3.90;;;1.70;;
48993;SDS011;34804;49.214;12.276;2023-07-29T13:02:04;4.28;;;1.55;;
48993;SDS011;34804;49.214;12.276;2023-07-29T13:04:33;4.50;;;1.73;;
48993;SDS011;34804;49.214;12.276;2023-07-29T13:07:00;4.13;;;1.85;;
48993;SDS011;34804;49.214;12.276;2023-07-29T13:09:27;4.65;;;2.08;;
48993;SDS011;34804;49.214;12.276;2023-07-29T13:11:54;4.18;;;1.85;;
48993;SDS011;34804;49.214;12.276;2023-07-29T13:14:21;4.88;;;1.73;;
48993;SDS011;34804;49.214;12.276;2023-07-29T13:16:48;4.55;;;1.83;;
48993;SDS011;34804;49.214;12.276;2023-07-29T13:19:14;3.83;;;1.70;;
48993;SDS011;34804;49.214;12.276;2023-07-29T13:21:41;3.00;;;1.55;;
48993;SDS011;34804;49.214;12.276;2023-07-29T13:24:08;4.65;;;2.10;;
48993;SDS011;34804;49.214;12.276;2023-07-29T13:26:35;5.63;;;1.90;;
48993;SDS011;34804;49.214;12.276;2023-07-29T13:29:02;3.72;;;1.90;;
48993;SDS011;34804;49.214;12.276;2023-07-29T13:31:34;4.20;;;2.00;;
48993;SDS011;34804;49.214;12.276;2023-07-29T13:34:00;3.80;;;2.13;;
48993;SDS011;34804;49.214;12.276;2023-07-29T13:36:27;5.18;;;2.20;;
48993;SDS011;34804;49.214;12.276;2023-07-29T13:38:54;4.15;;;1.90;;
48993;SDS011;34804;49.214;12.276;2023-07-29T13:41:21;2.97;;;1.33;;
48993;SDS011;34804;49.214;12.276;2023-07-29T13:43:48;4.10;;;1.90;;
48993;SDS011;34804;49.214;12.276;2023-07-29T13:46:15;5.95;;;1.85;;
48993;SDS011;34804;49.214;12.276;2023-07-29T13:48:41;4.60;;;2.20;;
48993;SDS011;34804;49.214;12.276;2023-07-29T13:51:08;5.70;;;1.70;;
48993;SDS011;34804;49.214;12.276;2023-07-29T13:53:35;3.58;;;1.33;;
48993;SDS011;34804;49.214;12.276;2023-07-29T13:56:02;3.45;;;1.40;;
48993;SDS011;34804;49.214;12.276;2023-07-29T13:58:30;4.10;;;1.50;;
48993;SDS011;34804;49.214;12.276;2023-07-29T14:00:57;3.63;;;1.80;;
48993;SDS011;34804;49.214;12.276;2023-07-29T14:03:25;4.40;;;1.50;;
48993;SDS011;34804;49.214;12.276;2023-07-29T14:05:52;3.10;;;1.50;;
48993;SDS011;34804;49.214;12.276;2023-07-29T14:08:19;3.22;;;1.60;;
48993;SDS011;34804;49.214;12.276;2023-07-29T14:10:46;3.40;;;1.65;;
48993;SDS011;34804;49.214;12.276;2023-07-29T14:13:15;5.15;;;1.60;;
48993;SDS011;34804;49.214;12.276;2023-07-29T14:15:42;2.88;;;1.50;;
48993;SDS011;34804;49.214;12.276;2023-07-29T14:18:09;2.78;;;1.38;;
48993;SDS011;34804;49.214;12.276;2023-07-29T14:20:35;2.50;;;1.33;;
48993;SDS011;34804;49.214;12.276;2023-07-29T14:23:02;3.20;;;1.55;;
48993;SDS011;34804;49.214;12.276;2023-07-29T14:25:29;3.60;;;1.50;;
48993;SDS011;34804;49.214;12.276;2023-07-29T14:27:56;2.83;;;1.55;;
48993;SDS011;34804;49.214;12.276;2023-07-29T14:30:23;2.95;;;1.35;;
48993;SDS011;34804;49.214;12.276;2023-07-29T14:32:50;3.38;;;1.55;;
48993;SDS011;34804;49.214;12.276;2023-07-29T14:35:17;3.05;;;1.40;;
48993;SDS011;34804;49.214;12.276;2023-07-29T14:37:44;2.97;;;1.40;;
48993;SDS011;34804;49.214;12.276;2023-07-29T14:40:10;2.95;;;1.40;;
48993;SDS011;34804;49.214;12.276;2023-07-29T14:42:37;3.90;;;1.40;;
48993;SDS011;34804;49.214;12.276;2023-07-29T14:45:04;3.15;;;1.33;;
48993;SDS011;34804;49.214;12.276;2023-07-29T14:47:31;3.22;;;1.35;;
48993;SDS011;34804;49.214;12.276;2023-07-29T14:50:01;3.80;;;1.58;;